sensor_id;sensor_type;location;lat;lon;timestamp;P1;durP1;ratioP1;P2;durP2;ratioP2
19057;SDS011;9662;53.612;9.914;2023-01-31T00:01:11;658.58;;;332.52;;
19057;SDS011;9662;53.612;9.914;2023-01-31T00:03:38;662.85;;;320.67;;
19057;SDS011;9662;53.612;9.914;2023-01-31T00:06:15;729.25;;;321.35;;
19057;SDS011;9662;53.612;9.914;2023-01-31T00:08:43;696.28;;;316.83;;
19057;SDS011;9662;53.612;9.914;2023-01-31T00:11:11;710.63;;;315.65;;
19057;SDS011;9662;53.612;9.914;2023-01-31T00:13:38;701.43;;;315.13;;
19057;SDS011;9662;53.612;9.914;2023-01-31T00:16:05;696.67;;;317.00;;
19057;SDS011;9662;53.612;9.914;2023-01-31T00:18:33;723.78;;;314.48;;
19057;SDS011;9662;53.612;9.914;2023-01-31T00:21:03;715.78;;;315.63;;
19057;SDS011;9662;53.612;9.914;2023-01-31T00:23:31;704.22;;;314.00;;
19057;SDS011;9662;53.612;9.914;2023-01-31T00:26:05;716.83;;;308.48;;
19057;SDS011;9662;53.612;9.914;2023-01-31T00:28:32;659.60;;;311.55;;
19057;SDS011;9662;53.612;9.914;2023-01-31T00:30:59;689.30;;;316.45;;
19057;SDS011;9662;53.612;9.914;2023-01-31T00:33:26;697.25;;;330.15;;
19057;SDS011;9662;53.612;9.914;2023-01-31T00:35:54;723.85;;;335.02;;
19057;SDS011;9662;53.612;9.914;2023-01-31T00:38:21;715.90;;;327.92;;
19057;SDS011;9662;53.612;9.914;2023-01-31T00:40:51;708.75;;;327.65;;
19057;SDS011;9662;53.612;9.914;2023-01-31T00:43:19;675.70;;;327.45;;
19057;SDS011;9662;53.612;9.914;2023-01-31T00:45:46;708.60;;;340.43;;
19057;SDS011;9662;53.612;9.914;2023-01-31T00:48:13;689.35;;;340.77;;
19057;SDS011;9662;53.612;9.914;2023-01-31T00:50:40;684.88;;;338.80;;
19057;SDS011;9662;53.612;9.914;2023-01-31T00:53:07;682.47;;;325.53;;
19057;SDS011;9662;53.612;9.914;2023-01-31T00:55:35;687.78;;;319.92;;
19057;SDS011;9662;53.612;9.914;2023-01-31T00:58:03;646.88;;;317.20;;
19057;SDS011;9662;53.612;9.914;2023-01-31T01:00:30;709.80;;;317.77;;
19057;SDS011;9662;53.612;9.914;2023-01-31T01:02:57;681.28;;;312.60;;
19057;SDS011;9662;53.612;9.914;2023-01-31T01:05:24;654.05;;;309.63;;
19057;SDS011;9662;53.612;9.914;2023-01-31T01:07:51;698.92;;;303.95;;
19057;SDS011;9662;53.612;9.914;2023-01-31T01:10:19;707.08;;;300.20;;
19057;SDS011;9662;53.612;9.914;2023-01-31T01:12:46;690.60;;;298.25;;
19057;SDS011;9662;53.612;9.914;2023-01-31T01:15:14;691.03;;;296.77;;
19057;SDS011;9662;53.612;9.914;2023-01-31T01:17:41;671.08;;;295.42;;
19057;SDS011;9662;53.612;9.914;2023-01-31T01:20:09;675.40;;;296.23;;
19057;SDS011;9662;53.612;9.914;2023-01-31T01:22:36;704.87;;;298.20;;
19057;SDS011;9662;53.612;9.914;2023-01-31T01:25:04;697.28;;;292.48;;
19057;SDS011;9662;53.612;9.914;2023-01-31T01:27:31;704.17;;;295.60;;
19057;SDS011;9662;53.612;9.914;2023-01-31T01:29:58;707.00;;;294.45;;
19057;SDS011;9662;53.612;9.914;2023-01-31T01:32:27;689.92;;;293.15;;
19057;SDS011;9662;53.612;9.914;2023-01-31T01:34:54;684.90;;;296.20;;
19057;SDS011;9662;53.612;9.914;2023-01-31T01:37:21;687.97;;;291.23;;
19057;SDS011;9662;53.612;9.914;2023-01-31T01:39:48;688.72;;;293.27;;
19057;SDS011;9662;53.612;9.914;2023-01-31T01:42:17;686.33;;;288.70;;
19057;SDS011;9662;53.612;9.914;2023-01-31T01:44:46;691.88;;;292.67;;
19057;SDS011;9662;53.612;9.914;2023-01-31T01:47:15;708.45;;;286.95;;
19057;SDS011;9662;53.612;9.914;2023-01-31T01:49:45;714.33;;;290.88;;
19057;SDS011;9662;53.612;9.914;2023-01-31T01:52:13;712.80;;;294.38;;
19057;SDS011;9662;53.612;9.914;2023-01-31T01:54:42;714.35;;;292.05;;
19057;SDS011;9662;53.612;9.914;2023-01-31T01:57:10;669.97;;;287.63;;
19057;SDS011;9662;53.612;9.914;2023-01-31T01:59:39;673.50;;;283.70;;
19057;SDS011;9662;53.612;9.914;2023-01-31T02:02:09;692.35;;;279.92;;
19057;SDS011;9662;53.612;9.914;2023-01-31T02:04:38;699.67;;;284.58;;
19057;SDS011;9662;53.612;9.914;2023-01-31T02:07:07;754.65;;;301.38;;
19057;SDS011;9662;53.612;9.914;2023-01-31T02:09:35;727.45;;;298.10;;
19057;SDS011;9662;53.612;9.914;2023-01-31T02:12:05;723.65;;;298.73;;
19057;SDS011;9662;53.612;9.914;2023-01-31T02:14:32;718.43;;;304.03;;
19057;SDS011;9662;53.612;9.914;2023-01-31T02:16:59;719.28;;;300.20;;
19057;SDS011;9662;53.612;9.914;2023-01-31T02:19:28;715.03;;;310.85;;
19057;SDS011;9662;53.612;9.914;2023-01-31T02:22:03;720.90;;;315.60;;
19057;SDS011;9662;53.612;9.914;2023-01-31T02:33:12;736.70;;;310.75;;
19057;SDS011;9662;53.612;9.914;2023-01-31T02:35:46;747.17;;;311.70;;
19057;SDS011;9662;53.612;9.914;2023-01-31T02:38:18;759.45;;;313.17;;
19057;SDS011;9662;53.612;9.914;2023-01-31T02:40:49;755.78;;;316.58;;
19057;SDS011;9662;53.612;9.914;2023-01-31T02:43:19;756.00;;;320.60;;
19057;SDS011;9662;53.612;9.914;2023-01-31T02:45:49;732.85;;;317.33;;
19057;SDS011;9662;53.612;9.914;2023-01-31T02:48:18;743.92;;;312.58;;
19057;SDS011;9662;53.612;9.914;2023-01-31T02:50:52;737.03;;;314.42;;
19057;SDS011;9662;53.612;9.914;2023-01-31T02:53:24;725.03;;;319.95;;
19057;SDS011;9662;53.612;9.914;2023-01-31T02:55:54;735.17;;;322.50;;
19057;SDS011;9662;53.612;9.914;2023-01-31T02:58:43;707.20;;;317.20;;
19057;SDS011;9662;53.612;9.914;2023-01-31T03:01:12;733.65;;;323.10;;
19057;SDS011;9662;53.612;9.914;2023-01-31T03:03:42;715.20;;;316.38;;
19057;SDS011;9662;53.612;9.914;2023-01-31T03:06:11;721.23;;;313.97;;
19057;SDS011;9662;53.612;9.914;2023-01-31T03:08:47;715.05;;;310.67;;
19057;SDS011;9662;53.612;9.914;2023-01-31T03:11:14;715.05;;;307.33;;
19057;SDS011;9662;53.612;9.914;2023-01-31T03:13:44;705.38;;;316.73;;
19057;SDS011;9662;53.612;9.914;2023-01-31T03:16:16;649.83;;;308.92;;
19057;SDS011;9662;53.612;9.914;2023-01-31T03:19:07;662.58;;;312.75;;
19057;SDS011;9662;53.612;9.914;2023-01-31T03:21:38;673.35;;;309.30;;
19057;SDS011;9662;53.612;9.914;2023-01-31T03:24:07;704.10;;;320.35;;
19057;SDS011;9662;53.612;9.914;2023-01-31T03:26:35;707.67;;;303.33;;
19057;SDS011;9662;53.612;9.914;2023-01-31T03:29:02;739.47;;;311.13;;
19057;SDS011;9662;53.612;9.914;2023-01-31T03:31:32;753.38;;;303.38;;
19057;SDS011;9662;53.612;9.914;2023-01-31T03:34:02;745.67;;;310.35;;
19057;SDS011;9662;53.612;9.914;2023-01-31T03:36:32;721.45;;;305.02;;
19057;SDS011;9662;53.612;9.914;2023-01-31T03:39:09;717.47;;;304.50;;
19057;SDS011;9662;53.612;9.914;2023-01-31T03:41:41;699.53;;;300.58;;
19057;SDS011;9662;53.612;9.914;2023-01-31T03:44:11;694.47;;;300.23;;
19057;SDS011;9662;53.612;9.914;2023-01-31T03:46:41;712.88;;;302.98;;
19057;SDS011;9662;53.612;9.914;2023-01-31T03:49:10;714.42;;;316.00;;
19057;SDS011;9662;53.612;9.914;2023-01-31T03:51:40;683.85;;;313.45;;
19057;SDS011;9662;53.612;9.914;2023-01-31T03:54:10;700.22;;;315.65;;
19057;SDS011;9662;53.612;9.914;2023-01-31T03:56:40;728.97;;;310.45;;
19057;SDS011;9662;53.612;9.914;2023-01-31T03:59:08;727.00;;;317.08;;
19057;SDS011;9662;53.612;9.914;2023-01-31T04:01:38;717.42;;;312.02;;
19057;SDS011;9662;53.612;9.914;2023-01-31T04:04:07;717.93;;;315.00;;
19057;SDS011;9662;53.612;9.914;2023-01-31T04:06:36;667.40;;;312.85;;
19057;SDS011;9662;53.612;9.914;2023-01-31T04:09:04;661.10;;;315.52;;
19057;SDS011;9662;53.612;9.914;2023-01-31T04:11:35;674.30;;;326.50;;
19057;SDS011;9662;53.612;9.914;2023-01-31T04:14:02;637.90;;;310.35;;
19057;SDS011;9662;53.612;9.914;2023-01-31T04:16:30;766.22;;;327.05;;
19057;SDS011;9662;53.612;9.914;2023-01-31T04:18:57;755.03;;;322.77;;
19057;SDS011;9662;53.612;9.914;2023-01-31T04:21:24;763.78;;;326.42;;
19057;SDS011;9662;53.612;9.914;2023-01-31T04:23:51;748.58;;;324.90;;
19057;SDS011;9662;53.612;9.914;2023-01-31T04:26:19;734.90;;;326.05;;
19057;SDS011;9662;53.612;9.914;2023-01-31T04:28:46;734.22;;;323.80;;
19057;SDS011;9662;53.612;9.914;2023-01-31T04:31:13;737.17;;;324.85;;
19057;SDS011;9662;53.612;9.914;2023-01-31T04:33:41;752.17;;;326.73;;
19057;SDS011;9662;53.612;9.914;2023-01-31T04:36:08;733.85;;;334.95;;
19057;SDS011;9662;53.612;9.914;2023-01-31T04:38:35;726.38;;;330.10;;
19057;SDS011;9662;53.612;9.914;2023-01-31T04:41:02;738.70;;;326.30;;
19057;SDS011;9662;53.612;9.914;2023-01-31T04:43:31;737.80;;;332.42;;
19057;SDS011;9662;53.612;9.914;2023-01-31T04:45:58;718.58;;;335.10;;
19057;SDS011;9662;53.612;9.914;2023-01-31T04:48:25;718.22;;;330.65;;
19057;SDS011;9662;53.612;9.914;2023-01-31T04:50:52;726.53;;;325.95;;
19057;SDS011;9662;53.612;9.914;2023-01-31T04:53:19;734.33;;;334.60;;
19057;SDS011;9662;53.612;9.914;2023-01-31T04:55:46;714.58;;;328.63;;
19057;SDS011;9662;53.612;9.914;2023-01-31T04:58:14;702.33;;;336.92;;
19057;SDS011;9662;53.612;9.914;2023-01-31T05:00:42;687.70;;;325.10;;
19057;SDS011;9662;53.612;9.914;2023-01-31T05:03:09;659.17;;;315.97;;
19057;SDS011;9662;53.612;9.914;2023-01-31T05:05:37;692.90;;;325.38;;
19057;SDS011;9662;53.612;9.914;2023-01-31T05:08:04;668.00;;;322.38;;
19057;SDS011;9662;53.612;9.914;2023-01-31T05:10:32;664.83;;;319.17;;
19057;SDS011;9662;53.612;9.914;2023-01-31T05:13:00;679.40;;;323.40;;
19057;SDS011;9662;53.612;9.914;2023-01-31T05:15:27;672.10;;;329.13;;
19057;SDS011;9662;53.612;9.914;2023-01-31T05:17:55;680.97;;;328.63;;
19057;SDS011;9662;53.612;9.914;2023-01-31T05:20:26;685.33;;;327.33;;
19057;SDS011;9662;53.612;9.914;2023-01-31T05:22:53;675.88;;;328.75;;
19057;SDS011;9662;53.612;9.914;2023-01-31T05:25:20;666.47;;;325.20;;
19057;SDS011;9662;53.612;9.914;2023-01-31T05:27:48;681.22;;;334.90;;
19057;SDS011;9662;53.612;9.914;2023-01-31T05:30:15;681.57;;;335.30;;
19057;SDS011;9662;53.612;9.914;2023-01-31T05:32:42;666.38;;;326.25;;
19057;SDS011;9662;53.612;9.914;2023-01-31T05:35:11;687.10;;;322.80;;
19057;SDS011;9662;53.612;9.914;2023-01-31T05:37:38;673.90;;;328.97;;
19057;SDS011;9662;53.612;9.914;2023-01-31T05:40:07;659.63;;;317.05;;
19057;SDS011;9662;53.612;9.914;2023-01-31T05:42:34;668.00;;;319.23;;
19057;SDS011;9662;53.612;9.914;2023-01-31T05:45:02;660.00;;;316.55;;
19057;SDS011;9662;53.612;9.914;2023-01-31T05:47:29;659.28;;;322.85;;
19057;SDS011;9662;53.612;9.914;2023-01-31T05:49:56;680.40;;;321.70;;
19057;SDS011;9662;53.612;9.914;2023-01-31T05:52:25;631.30;;;319.27;;
19057;SDS011;9662;53.612;9.914;2023-01-31T05:54:52;661.50;;;317.55;;
19057;SDS011;9662;53.612;9.914;2023-01-31T05:57:19;658.10;;;316.23;;
19057;SDS011;9662;53.612;9.914;2023-01-31T05:59:46;674.70;;;319.13;;
19057;SDS011;9662;53.612;9.914;2023-01-31T06:02:13;672.03;;;316.38;;
19057;SDS011;9662;53.612;9.914;2023-01-31T06:04:40;669.38;;;323.23;;
19057;SDS011;9662;53.612;9.914;2023-01-31T06:07:07;691.42;;;325.75;;
19057;SDS011;9662;53.612;9.914;2023-01-31T06:09:36;663.38;;;316.13;;
19057;SDS011;9662;53.612;9.914;2023-01-31T06:12:04;644.67;;;316.47;;
19057;SDS011;9662;53.612;9.914;2023-01-31T06:14:32;638.50;;;317.55;;
19057;SDS011;9662;53.612;9.914;2023-01-31T06:16:59;672.92;;;321.58;;
19057;SDS011;9662;53.612;9.914;2023-01-31T06:19:26;680.97;;;325.52;;
19057;SDS011;9662;53.612;9.914;2023-01-31T06:21:53;676.28;;;321.88;;
19057;SDS011;9662;53.612;9.914;2023-01-31T06:24:20;674.33;;;322.95;;
19057;SDS011;9662;53.612;9.914;2023-01-31T06:26:48;666.45;;;326.08;;
19057;SDS011;9662;53.612;9.914;2023-01-31T06:29:15;689.67;;;326.17;;
19057;SDS011;9662;53.612;9.914;2023-01-31T06:31:43;692.63;;;326.55;;
19057;SDS011;9662;53.612;9.914;2023-01-31T06:34:10;685.60;;;329.87;;
19057;SDS011;9662;53.612;9.914;2023-01-31T06:36:37;674.17;;;332.13;;
19057;SDS011;9662;53.612;9.914;2023-01-31T06:39:04;659.03;;;330.05;;
19057;SDS011;9662;53.612;9.914;2023-01-31T06:41:31;684.83;;;334.88;;
19057;SDS011;9662;53.612;9.914;2023-01-31T06:44:00;689.67;;;341.43;;
19057;SDS011;9662;53.612;9.914;2023-01-31T06:46:27;680.90;;;331.42;;
19057;SDS011;9662;53.612;9.914;2023-01-31T06:48:54;673.37;;;327.57;;
19057;SDS011;9662;53.612;9.914;2023-01-31T06:51:21;673.08;;;329.33;;
19057;SDS011;9662;53.612;9.914;2023-01-31T06:53:48;667.50;;;326.52;;
19057;SDS011;9662;53.612;9.914;2023-01-31T06:56:17;683.13;;;327.50;;
19057;SDS011;9662;53.612;9.914;2023-01-31T06:58:44;676.22;;;334.73;;
19057;SDS011;9662;53.612;9.914;2023-01-31T07:01:13;655.75;;;320.83;;
19057;SDS011;9662;53.612;9.914;2023-01-31T07:03:40;658.30;;;329.70;;
19057;SDS011;9662;53.612;9.914;2023-01-31T07:06:08;670.67;;;318.25;;
19057;SDS011;9662;53.612;9.914;2023-01-31T07:08:36;676.35;;;321.02;;
19057;SDS011;9662;53.612;9.914;2023-01-31T07:11:03;664.23;;;328.70;;
19057;SDS011;9662;53.612;9.914;2023-01-31T07:13:30;655.10;;;324.58;;
19057;SDS011;9662;53.612;9.914;2023-01-31T07:15:57;697.47;;;333.50;;
19057;SDS011;9662;53.612;9.914;2023-01-31T07:18:26;697.58;;;324.75;;
19057;SDS011;9662;53.612;9.914;2023-01-31T07:20:53;695.83;;;331.13;;
19057;SDS011;9662;53.612;9.914;2023-01-31T07:23:20;688.88;;;332.10;;
19057;SDS011;9662;53.612;9.914;2023-01-31T07:25:47;695.38;;;328.52;;
19057;SDS011;9662;53.612;9.914;2023-01-31T07:28:15;708.50;;;333.47;;
19057;SDS011;9662;53.612;9.914;2023-01-31T07:30:42;698.72;;;331.63;;
19057;SDS011;9662;53.612;9.914;2023-01-31T07:33:10;719.75;;;343.77;;
19057;SDS011;9662;53.612;9.914;2023-01-31T07:35:38;729.88;;;335.13;;
19057;SDS011;9662;53.612;9.914;2023-01-31T07:38:07;699.60;;;337.73;;
19057;SDS011;9662;53.612;9.914;2023-01-31T07:40:34;690.05;;;333.52;;
19057;SDS011;9662;53.612;9.914;2023-01-31T07:43:01;683.20;;;328.20;;
19057;SDS011;9662;53.612;9.914;2023-01-31T07:45:29;718.50;;;343.83;;
19057;SDS011;9662;53.612;9.914;2023-01-31T07:47:56;687.67;;;342.92;;
19057;SDS011;9662;53.612;9.914;2023-01-31T07:50:24;676.90;;;337.75;;
19057;SDS011;9662;53.612;9.914;2023-01-31T07:52:53;694.80;;;339.73;;
19057;SDS011;9662;53.612;9.914;2023-01-31T07:55:20;699.75;;;340.98;;
19057;SDS011;9662;53.612;9.914;2023-01-31T07:57:47;691.88;;;348.48;;
19057;SDS011;9662;53.612;9.914;2023-01-31T08:00:15;705.10;;;353.90;;
19057;SDS011;9662;53.612;9.914;2023-01-31T08:02:59;713.30;;;342.40;;
19057;SDS011;9662;53.612;9.914;2023-01-31T08:05:44;704.83;;;339.02;;
19057;SDS011;9662;53.612;9.914;2023-01-31T08:08:13;680.85;;;354.23;;
19057;SDS011;9662;53.612;9.914;2023-01-31T08:10:40;677.83;;;338.63;;
19057;SDS011;9662;53.612;9.914;2023-01-31T08:13:07;678.60;;;346.55;;
19057;SDS011;9662;53.612;9.914;2023-01-31T08:15:35;691.40;;;352.50;;
19057;SDS011;9662;53.612;9.914;2023-01-31T08:18:03;712.95;;;350.70;;
19057;SDS011;9662;53.612;9.914;2023-01-31T08:20:30;702.70;;;350.38;;
19057;SDS011;9662;53.612;9.914;2023-01-31T08:22:57;689.58;;;344.42;;
19057;SDS011;9662;53.612;9.914;2023-01-31T08:25:26;714.33;;;355.30;;
19057;SDS011;9662;53.612;9.914;2023-01-31T08:27:55;708.40;;;344.92;;
19057;SDS011;9662;53.612;9.914;2023-01-31T08:30:22;695.38;;;352.42;;
19057;SDS011;9662;53.612;9.914;2023-01-31T08:32:50;689.05;;;344.83;;
19057;SDS011;9662;53.612;9.914;2023-01-31T08:35:17;702.30;;;355.17;;
19057;SDS011;9662;53.612;9.914;2023-01-31T08:37:44;719.15;;;364.20;;
19057;SDS011;9662;53.612;9.914;2023-01-31T08:40:11;726.60;;;358.23;;
19057;SDS011;9662;53.612;9.914;2023-01-31T08:42:40;713.40;;;354.52;;
19057;SDS011;9662;53.612;9.914;2023-01-31T08:45:07;704.75;;;367.05;;
19057;SDS011;9662;53.612;9.914;2023-01-31T08:47:34;720.83;;;369.63;;
19057;SDS011;9662;53.612;9.914;2023-01-31T08:50:03;725.67;;;373.27;;
19057;SDS011;9662;53.612;9.914;2023-01-31T08:52:32;733.70;;;362.47;;
19057;SDS011;9662;53.612;9.914;2023-01-31T08:54:59;712.08;;;365.50;;
19057;SDS011;9662;53.612;9.914;2023-01-31T08:57:27;704.55;;;371.90;;
19057;SDS011;9662;53.612;9.914;2023-01-31T08:59:55;729.30;;;366.67;;
19057;SDS011;9662;53.612;9.914;2023-01-31T09:02:22;725.13;;;371.73;;
19057;SDS011;9662;53.612;9.914;2023-01-31T09:04:49;737.03;;;368.45;;
19057;SDS011;9662;53.612;9.914;2023-01-31T09:07:16;727.92;;;366.92;;
19057;SDS011;9662;53.612;9.914;2023-01-31T09:09:45;724.42;;;359.42;;
19057;SDS011;9662;53.612;9.914;2023-01-31T09:12:12;723.33;;;368.17;;
19057;SDS011;9662;53.612;9.914;2023-01-31T09:14:40;709.60;;;366.77;;
19057;SDS011;9662;53.612;9.914;2023-01-31T09:17:08;740.65;;;370.30;;
19057;SDS011;9662;53.612;9.914;2023-01-31T09:19:35;728.88;;;364.77;;
19057;SDS011;9662;53.612;9.914;2023-01-31T09:22:02;743.10;;;364.80;;
19057;SDS011;9662;53.612;9.914;2023-01-31T09:24:29;721.53;;;366.38;;
19057;SDS011;9662;53.612;9.914;2023-01-31T09:26:57;744.20;;;370.77;;
19057;SDS011;9662;53.612;9.914;2023-01-31T09:29:24;764.17;;;377.33;;
19057;SDS011;9662;53.612;9.914;2023-01-31T09:31:52;721.45;;;370.90;;
19057;SDS011;9662;53.612;9.914;2023-01-31T09:34:21;720.10;;;370.55;;
19057;SDS011;9662;53.612;9.914;2023-01-31T09:36:49;734.55;;;367.48;;
19057;SDS011;9662;53.612;9.914;2023-01-31T09:39:16;738.92;;;363.58;;
19057;SDS011;9662;53.612;9.914;2023-01-31T09:41:43;748.78;;;362.92;;
19057;SDS011;9662;53.612;9.914;2023-01-31T09:44:13;756.05;;;363.00;;
19057;SDS011;9662;53.612;9.914;2023-01-31T09:46:42;742.90;;;358.23;;
19057;SDS011;9662;53.612;9.914;2023-01-31T09:49:13;752.35;;;365.83;;
19057;SDS011;9662;53.612;9.914;2023-01-31T09:51:43;727.90;;;358.30;;
19057;SDS011;9662;53.612;9.914;2023-01-31T09:54:13;737.83;;;368.67;;
19057;SDS011;9662;53.612;9.914;2023-01-31T09:56:44;729.22;;;362.67;;
19057;SDS011;9662;53.612;9.914;2023-01-31T09:59:16;721.73;;;376.63;;
19057;SDS011;9662;53.612;9.914;2023-01-31T10:01:48;781.00;;;370.33;;
19057;SDS011;9662;53.612;9.914;2023-01-31T10:04:20;767.10;;;371.85;;
19057;SDS011;9662;53.612;9.914;2023-01-31T10:06:51;770.65;;;374.67;;
19057;SDS011;9662;53.612;9.914;2023-01-31T10:09:22;764.30;;;370.17;;
19057;SDS011;9662;53.612;9.914;2023-01-31T10:11:53;759.15;;;371.38;;
19057;SDS011;9662;53.612;9.914;2023-01-31T10:14:25;799.03;;;388.55;;
19057;SDS011;9662;53.612;9.914;2023-01-31T10:16:57;771.50;;;384.35;;
19057;SDS011;9662;53.612;9.914;2023-01-31T10:19:27;746.63;;;386.75;;
19057;SDS011;9662;53.612;9.914;2023-01-31T10:21:58;760.13;;;385.40;;
19057;SDS011;9662;53.612;9.914;2023-01-31T10:24:28;771.07;;;376.53;;
19057;SDS011;9662;53.612;9.914;2023-01-31T10:26:59;743.60;;;377.48;;
19057;SDS011;9662;53.612;9.914;2023-01-31T10:29:30;756.83;;;389.90;;
19057;SDS011;9662;53.612;9.914;2023-01-31T10:31:59;752.13;;;385.83;;
19057;SDS011;9662;53.612;9.914;2023-01-31T10:34:29;755.53;;;384.63;;
19057;SDS011;9662;53.612;9.914;2023-01-31T10:37:01;768.53;;;394.20;;
19057;SDS011;9662;53.612;9.914;2023-01-31T10:39:30;758.17;;;378.02;;
19057;SDS011;9662;53.612;9.914;2023-01-31T10:42:07;762.65;;;394.55;;
19057;SDS011;9662;53.612;9.914;2023-01-31T10:44:39;735.63;;;380.25;;
19057;SDS011;9662;53.612;9.914;2023-01-31T10:47:09;745.90;;;385.25;;
19057;SDS011;9662;53.612;9.914;2023-01-31T10:49:37;775.13;;;390.33;;
19057;SDS011;9662;53.612;9.914;2023-01-31T10:52:13;772.35;;;377.77;;
19057;SDS011;9662;53.612;9.914;2023-01-31T10:54:47;782.83;;;387.75;;
19057;SDS011;9662;53.612;9.914;2023-01-31T10:57:16;781.30;;;391.40;;
19057;SDS011;9662;53.612;9.914;2023-01-31T10:59:43;774.05;;;383.05;;
19057;SDS011;9662;53.612;9.914;2023-01-31T11:02:15;778.38;;;390.48;;
19057;SDS011;9662;53.612;9.914;2023-01-31T11:04:43;774.53;;;398.23;;
19057;SDS011;9662;53.612;9.914;2023-01-31T11:07:12;767.40;;;392.60;;
19057;SDS011;9662;53.612;9.914;2023-01-31T11:09:40;754.50;;;396.67;;
19057;SDS011;9662;53.612;9.914;2023-01-31T11:12:08;736.97;;;395.83;;
19057;SDS011;9662;53.612;9.914;2023-01-31T11:14:36;774.25;;;398.52;;
19057;SDS011;9662;53.612;9.914;2023-01-31T11:17:04;762.63;;;397.83;;
19057;SDS011;9662;53.612;9.914;2023-01-31T11:19:33;764.97;;;395.97;;
19057;SDS011;9662;53.612;9.914;2023-01-31T11:22:00;772.67;;;398.60;;
19057;SDS011;9662;53.612;9.914;2023-01-31T11:24:30;774.88;;;395.90;;
19057;SDS011;9662;53.612;9.914;2023-01-31T11:26:59;784.60;;;402.38;;
19057;SDS011;9662;53.612;9.914;2023-01-31T11:29:27;778.83;;;396.75;;
19057;SDS011;9662;53.612;9.914;2023-01-31T11:31:54;786.08;;;405.30;;
19057;SDS011;9662;53.612;9.914;2023-01-31T11:34:23;778.78;;;398.95;;
19057;SDS011;9662;53.612;9.914;2023-01-31T11:36:50;796.78;;;409.27;;
19057;SDS011;9662;53.612;9.914;2023-01-31T11:39:23;790.97;;;404.97;;
19057;SDS011;9662;53.612;9.914;2023-01-31T11:41:52;788.30;;;403.38;;
19057;SDS011;9662;53.612;9.914;2023-01-31T11:44:20;789.70;;;403.00;;
19057;SDS011;9662;53.612;9.914;2023-01-31T11:46:48;773.45;;;402.08;;
19057;SDS011;9662;53.612;9.914;2023-01-31T11:49:21;779.43;;;410.97;;
19057;SDS011;9662;53.612;9.914;2023-01-31T11:51:48;768.92;;;402.55;;
19057;SDS011;9662;53.612;9.914;2023-01-31T11:54:16;771.13;;;414.33;;
19057;SDS011;9662;53.612;9.914;2023-01-31T11:56:44;773.43;;;403.83;;
19057;SDS011;9662;53.612;9.914;2023-01-31T11:59:15;789.75;;;422.88;;
19057;SDS011;9662;53.612;9.914;2023-01-31T12:01:44;771.65;;;403.42;;
19057;SDS011;9662;53.612;9.914;2023-01-31T12:04:13;798.40;;;410.70;;
19057;SDS011;9662;53.612;9.914;2023-01-31T12:06:42;790.55;;;420.42;;
19057;SDS011;9662;53.612;9.914;2023-01-31T12:09:22;783.30;;;416.75;;
19057;SDS011;9662;53.612;9.914;2023-01-31T12:11:50;785.90;;;411.20;;
19057;SDS011;9662;53.612;9.914;2023-01-31T12:14:18;788.47;;;412.20;;
19057;SDS011;9662;53.612;9.914;2023-01-31T12:16:46;793.17;;;414.67;;
19057;SDS011;9662;53.612;9.914;2023-01-31T12:19:20;781.47;;;418.10;;
19057;SDS011;9662;53.612;9.914;2023-01-31T12:21:51;794.95;;;417.70;;
19057;SDS011;9662;53.612;9.914;2023-01-31T12:24:27;772.80;;;412.73;;
19057;SDS011;9662;53.612;9.914;2023-01-31T12:26:58;765.33;;;419.85;;
19057;SDS011;9662;53.612;9.914;2023-01-31T12:29:36;762.40;;;423.42;;
19057;SDS011;9662;53.612;9.914;2023-01-31T12:32:11;766.70;;;422.20;;
19057;SDS011;9662;53.612;9.914;2023-01-31T12:34:49;763.75;;;431.15;;
19057;SDS011;9662;53.612;9.914;2023-01-31T12:37:24;772.10;;;427.98;;
19057;SDS011;9662;53.612;9.914;2023-01-31T12:39:59;767.72;;;430.00;;
19057;SDS011;9662;53.612;9.914;2023-01-31T12:42:31;764.10;;;423.60;;
19057;SDS011;9662;53.612;9.914;2023-01-31T12:45:06;749.45;;;429.02;;
19057;SDS011;9662;53.612;9.914;2023-01-31T12:50:25;756.95;;;421.92;;
19057;SDS011;9662;53.612;9.914;2023-01-31T12:53:03;773.88;;;436.30;;
19057;SDS011;9662;53.612;9.914;2023-01-31T12:55:34;757.28;;;431.77;;
19057;SDS011;9662;53.612;9.914;2023-01-31T12:58:09;775.90;;;434.55;;
19057;SDS011;9662;53.612;9.914;2023-01-31T13:00:42;763.13;;;432.55;;
19057;SDS011;9662;53.612;9.914;2023-01-31T13:06:03;794.55;;;439.77;;
19057;SDS011;9662;53.612;9.914;2023-01-31T13:08:31;790.33;;;433.92;;
19057;SDS011;9662;53.612;9.914;2023-01-31T13:11:00;803.88;;;442.13;;
19057;SDS011;9662;53.612;9.914;2023-01-31T13:13:29;790.50;;;439.55;;
19057;SDS011;9662;53.612;9.914;2023-01-31T13:15:59;789.63;;;435.83;;
19057;SDS011;9662;53.612;9.914;2023-01-31T13:18:27;811.28;;;455.55;;
19057;SDS011;9662;53.612;9.914;2023-01-31T13:20:56;812.50;;;444.02;;
19057;SDS011;9662;53.612;9.914;2023-01-31T13:23:24;810.28;;;447.33;;
19057;SDS011;9662;53.612;9.914;2023-01-31T13:25:56;812.55;;;445.13;;
19057;SDS011;9662;53.612;9.914;2023-01-31T13:28:27;812.67;;;438.58;;
19057;SDS011;9662;53.612;9.914;2023-01-31T13:30:56;813.70;;;449.20;;
19057;SDS011;9662;53.612;9.914;2023-01-31T13:33:26;791.03;;;450.80;;
19057;SDS011;9662;53.612;9.914;2023-01-31T13:35:56;825.08;;;462.08;;
19057;SDS011;9662;53.612;9.914;2023-01-31T13:38:25;841.65;;;467.30;;
19057;SDS011;9662;53.612;9.914;2023-01-31T13:40:53;843.55;;;463.17;;
19057;SDS011;9662;53.612;9.914;2023-01-31T13:43:22;855.17;;;467.13;;
19057;SDS011;9662;53.612;9.914;2023-01-31T13:45:50;784.20;;;466.23;;
19057;SDS011;9662;53.612;9.914;2023-01-31T13:48:21;794.28;;;472.27;;
19057;SDS011;9662;53.612;9.914;2023-01-31T13:50:52;783.58;;;469.38;;
19057;SDS011;9662;53.612;9.914;2023-01-31T13:53:22;799.30;;;489.33;;
19057;SDS011;9662;53.612;9.914;2023-01-31T13:55:51;782.72;;;469.27;;
19057;SDS011;9662;53.612;9.914;2023-01-31T13:58:20;802.28;;;476.52;;
19057;SDS011;9662;53.612;9.914;2023-01-31T14:00:48;791.78;;;486.23;;
19057;SDS011;9662;53.612;9.914;2023-01-31T14:03:18;797.13;;;488.52;;
19057;SDS011;9662;53.612;9.914;2023-01-31T14:05:49;771.83;;;488.20;;
19057;SDS011;9662;53.612;9.914;2023-01-31T14:13:50;828.80;;;488.63;;
19057;SDS011;9662;53.612;9.914;2023-01-31T14:16:37;824.87;;;471.83;;
19057;SDS011;9662;53.612;9.914;2023-01-31T14:19:04;833.55;;;465.83;;
19057;SDS011;9662;53.612;9.914;2023-01-31T14:21:41;844.45;;;474.85;;
19057;SDS011;9662;53.612;9.914;2023-01-31T14:24:17;827.53;;;456.08;;
19057;SDS011;9662;53.612;9.914;2023-01-31T14:26:51;807.20;;;483.48;;
19057;SDS011;9662;53.612;9.914;2023-01-31T14:29:21;812.22;;;466.48;;
19057;SDS011;9662;53.612;9.914;2023-01-31T14:31:49;802.83;;;473.08;;
19057;SDS011;9662;53.612;9.914;2023-01-31T14:34:17;809.63;;;482.73;;
19057;SDS011;9662;53.612;9.914;2023-01-31T14:36:50;845.65;;;475.15;;
19057;SDS011;9662;53.612;9.914;2023-01-31T14:39:34;826.70;;;459.85;;